createdAt,value
2023-01-17T00:01:37.158Z,7.45
2023-01-17T00:04:22.810Z,8.40
2023-01-17T00:07:08.232Z,6.97
2023-01-17T00:09:53.547Z,7.20
2023-01-17T00:12:21.186Z,7.40
2023-01-17T00:14:48.530Z,6.82
2023-01-17T00:17:15.914Z,7.15
2023-01-17T00:20:01.373Z,7.35
2023-01-17T00:22:48.480Z,7.60
2023-01-17T00:25:38.740Z,7.15
2023-01-17T00:28:05.813Z,6.47
2023-01-17T00:30:32.878Z,7.07
2023-01-17T00:32:59.938Z,7.68
2023-01-17T00:35:27.821Z,7.20
2023-01-17T00:38:07.628Z,6.80
2023-01-17T00:40:35.530Z,6.75
2023-01-17T00:43:21.370Z,6.88
2023-01-17T00:46:06.816Z,7.72
2023-01-17T00:48:52.175Z,6.70
2023-01-17T00:51:37.765Z,6.50
2023-01-17T00:54:23.731Z,6.70
2023-01-17T00:57:09.519Z,6.65
2023-01-17T00:59:54.869Z,6.72
2023-01-17T01:02:40.779Z,6.68
2023-01-17T01:05:26.262Z,7.07
2023-01-17T01:08:12.130Z,6.40
2023-01-17T01:10:57.990Z,7.10
2023-01-17T01:13:47.209Z,6.60
2023-01-17T01:16:33.044Z,6.10
2023-01-17T01:19:18.409Z,6.18
2023-01-17T01:22:03.711Z,5.97
2023-01-17T01:24:49.261Z,6.15
2023-01-17T01:27:34.621Z,6.28
2023-01-17T01:30:20.138Z,6.28
2023-01-17T01:33:05.664Z,5.68
2023-01-17T01:35:32.769Z,6.60
2023-01-17T01:37:59.697Z,6.13
2023-01-17T01:40:26.607Z,6.05
2023-01-17T01:42:58.150Z,5.75
2023-01-17T01:45:29.846Z,5.75
2023-01-17T01:48:12.872Z,6.05
2023-01-17T01:50:39.808Z,5.45
2023-01-17T01:53:06.743Z,5.75
2023-01-17T01:55:35.178Z,5.75
2023-01-17T01:58:10.750Z,5.88
2023-01-17T02:00:38.652Z,6.68
2023-01-17T02:03:08.099Z,7.53
2023-01-17T02:05:35.100Z,8.15
2023-01-17T02:08:07.764Z,8.52
2023-01-17T02:10:35.477Z,8.02
2023-01-17T02:13:02.605Z,8.40
2023-01-17T02:15:39.929Z,10.88
2023-01-17T02:18:12.671Z,11.07
2023-01-17T02:27:28.797Z,11.88
2023-01-17T02:30:47.401Z,11.32
2023-01-17T02:33:38.009Z,10.70
2023-01-17T02:36:15.130Z,10.43
2023-01-17T02:38:57.576Z,11.10
2023-01-17T02:41:37.245Z,10.63
2023-01-17T02:44:04.234Z,11.55
2023-01-17T02:46:31.191Z,10.57
2023-01-17T02:48:58.360Z,9.73
2023-01-17T02:51:46.279Z,9.18
2023-01-17T02:54:22.130Z,8.65
2023-01-17T02:57:00.336Z,6.95
2023-01-17T02:59:34.834Z,6.63
2023-01-17T03:02:31.221Z,6.13
2023-01-17T03:04:58.189Z,5.63
2023-01-17T03:07:26.268Z,5.38
2023-01-17T03:09:59.208Z,5.60
2023-01-17T03:12:29.827Z,5.70
2023-01-17T03:14:56.869Z,4.90
2023-01-17T03:17:29.448Z,5.18
2023-01-17T03:19:56.369Z,5.20
2023-01-17T03:22:23.343Z,4.57
2023-01-17T03:24:50.549Z,4.85
2023-01-17T03:27:17.544Z,4.43
2023-01-17T03:29:44.420Z,5.40
2023-01-17T03:32:11.294Z,4.57
2023-01-17T03:34:38.206Z,5.03
2023-01-17T03:37:05.092Z,4.85
2023-01-17T03:39:32.119Z,4.70
2023-01-17T03:41:59.067Z,4.10
2023-01-17T03:44:25.968Z,4.13
2023-01-17T03:46:52.865Z,4.00
2023-01-17T03:49:19.887Z,4.55
2023-01-17T03:51:46.788Z,4.35
2023-01-17T03:54:13.760Z,4.60
2023-01-17T03:56:40.697Z,4.45
2023-01-17T03:59:07.770Z,4.72
2023-01-17T04:01:34.784Z,4.10
2023-01-17T04:04:01.740Z,4.40
2023-01-17T04:06:28.660Z,4.27
2023-01-17T04:08:55.590Z,4.23
2023-01-17T04:11:22.467Z,4.27
2023-01-17T04:13:49.474Z,4.70
2023-01-17T04:16:17.475Z,4.30
2023-01-17T04:18:45.100Z,4.80
2023-01-17T04:21:12.044Z,4.10
2023-01-17T04:23:39.036Z,4.35
2023-01-17T04:26:05.989Z,4.10
2023-01-17T04:28:33.078Z,4.85
2023-01-17T04:31:00.355Z,3.67
2023-01-17T04:33:27.365Z,4.28
2023-01-17T04:35:54.455Z,7.40
2023-01-17T04:38:21.914Z,6.25
2023-01-17T04:40:49.124Z,6.77
2023-01-17T04:43:17.008Z,9.10
2023-01-17T04:45:43.937Z,9.73
2023-01-17T04:48:12.804Z,12.70
2023-01-17T04:50:39.950Z,12.27
2023-01-17T04:53:07.180Z,11.13
2023-01-17T04:55:34.112Z,11.80
2023-01-17T04:58:01.232Z,12.02
2023-01-17T05:00:28.243Z,10.30
2023-01-17T05:02:55.247Z,8.50
2023-01-17T05:05:22.211Z,7.60
2023-01-17T05:07:58.413Z,7.33
2023-01-17T05:10:25.489Z,7.10
2023-01-17T05:12:59.056Z,7.00
2023-01-17T05:15:26.409Z,6.43
2023-01-17T05:17:53.549Z,6.63
2023-01-17T05:20:21.676Z,6.53
2023-01-17T05:22:58.137Z,6.30
2023-01-17T05:25:26.269Z,6.83
2023-01-17T05:27:53.412Z,7.27
2023-01-17T05:30:20.595Z,9.10
2023-01-17T05:32:51.469Z,8.57
2023-01-17T05:35:22.198Z,8.93
2023-01-17T05:37:50.470Z,8.03
2023-01-17T05:40:18.200Z,8.23
2023-01-17T05:42:52.761Z,6.90
2023-01-17T05:45:20.409Z,7.43
2023-01-17T05:47:48.681Z,6.40
2023-01-17T05:50:20.733Z,7.43
2023-01-17T05:52:58.336Z,7.57
2023-01-17T05:55:25.575Z,8.23
2023-01-17T05:57:53.306Z,8.30
2023-01-17T06:00:20.727Z,9.27
2023-01-17T06:02:47.869Z,8.17
2023-01-17T06:05:15.163Z,6.53
2023-01-17T06:07:45.769Z,6.77
2023-01-17T06:10:14.555Z,8.03
2023-01-17T06:12:45.086Z,7.60
2023-01-17T06:15:12.630Z,8.20
2023-01-17T06:17:42.987Z,8.00
2023-01-17T06:20:11.063Z,7.13
2023-01-17T06:22:38.023Z,6.37
2023-01-17T06:25:05.457Z,6.80
2023-01-17T06:27:32.480Z,7.10
2023-01-17T06:29:59.480Z,7.03
2023-01-17T06:32:26.643Z,6.20
2023-01-17T06:34:53.560Z,6.50
2023-01-17T06:37:20.465Z,5.37
2023-01-17T06:39:47.505Z,5.60
2023-01-17T06:42:14.555Z,5.57
2023-01-17T06:44:41.573Z,5.77
2023-01-17T06:47:08.465Z,5.90
2023-01-17T06:49:35.405Z,6.03
2023-01-17T06:52:02.357Z,5.90
2023-01-17T06:54:29.350Z,6.20
2023-01-17T06:56:56.352Z,6.03
2023-01-17T06:59:23.302Z,5.07
2023-01-17T07:01:50.283Z,6.00
2023-01-17T07:04:17.482Z,6.50
2023-01-17T07:06:44.641Z,6.27
2023-01-17T07:09:11.589Z,6.13
2023-01-17T07:11:38.769Z,6.77
2023-01-17T07:14:05.827Z,6.53
2023-01-17T07:16:34.078Z,5.90
2023-01-17T07:19:01.104Z,5.37
2023-01-17T07:21:28.097Z,5.30
2023-01-17T07:23:55.639Z,5.97
2023-01-17T07:26:22.651Z,5.53
2023-01-17T07:28:49.708Z,5.60
2023-01-17T07:31:16.765Z,5.63
2023-01-17T07:33:43.722Z,5.60
2023-01-17T07:36:10.999Z,5.70
2023-01-17T07:38:37.961Z,5.80
2023-01-17T07:41:05.104Z,5.33
2023-01-17T07:43:32.037Z,5.77
2023-01-17T07:46:01.341Z,5.77
2023-01-17T07:48:29.083Z,5.80
2023-01-17T07:50:56.858Z,5.77
2023-01-17T07:53:25.175Z,5.23
2023-01-17T07:55:52.244Z,5.13
2023-01-17T07:58:19.369Z,6.00
2023-01-17T08:00:46.460Z,6.13
2023-01-17T08:03:15.341Z,5.50
2023-01-17T08:05:43.016Z,5.83
2023-01-17T08:08:10.002Z,5.53
2023-01-17T08:10:37.043Z,5.47
2023-01-17T08:13:04.047Z,5.40
2023-01-17T08:15:31.002Z,5.30
2023-01-17T08:17:58.676Z,5.63
2023-01-17T08:20:27.804Z,5.60
2023-01-17T08:22:58.126Z,5.93
2023-01-17T08:25:25.297Z,5.60
2023-01-17T08:27:55.010Z,6.50
2023-01-17T08:30:22.620Z,5.50
2023-01-17T08:32:49.792Z,6.00
2023-01-17T08:35:16.757Z,6.30
2023-01-17T08:37:43.702Z,6.27
2023-01-17T08:40:11.333Z,6.43
2023-01-17T08:42:40.381Z,6.13
2023-01-17T08:45:08.271Z,6.30
2023-01-17T08:47:35.362Z,6.20
2023-01-17T08:50:02.557Z,6.97
2023-01-17T08:52:29.719Z,6.22
2023-01-17T08:54:56.656Z,5.82
2023-01-17T08:57:23.604Z,6.40
2023-01-17T08:59:50.550Z,6.05
2023-01-17T09:02:18.516Z,6.15
2023-01-17T09:04:46.664Z,6.38
2023-01-17T09:07:14.368Z,6.30
2023-01-17T09:09:41.380Z,6.93
2023-01-17T09:12:08.541Z,6.05
2023-01-17T09:14:35.844Z,6.30
2023-01-17T09:17:02.873Z,6.07
2023-01-17T09:19:29.918Z,5.95
2023-01-17T09:21:56.956Z,7.00
2023-01-17T09:24:23.891Z,7.60
2023-01-17T09:26:50.854Z,7.53
2023-01-17T09:29:18.770Z,7.93
2023-01-17T09:31:48.437Z,7.20
2023-01-17T09:34:15.560Z,7.47
2023-01-17T09:36:42.552Z,7.93
2023-01-17T09:39:10.309Z,8.15
2023-01-17T09:41:44.966Z,9.02
2023-01-17T09:44:53.627Z,8.00
2023-01-17T09:47:32.525Z,8.70
2023-01-17T09:50:20.399Z,8.95
2023-01-17T09:52:47.376Z,8.60
2023-01-17T09:55:15.505Z,8.98
2023-01-17T09:57:45.419Z,8.02
2023-01-17T10:00:36.513Z,8.07
2023-01-17T10:03:15.002Z,8.00
2023-01-17T10:06:03.264Z,9.85
2023-01-17T10:08:55.301Z,8.15
2023-01-17T10:11:53.449Z,8.68
2023-01-17T10:14:40.807Z,9.43
2023-01-17T10:17:30.098Z,9.30
2023-01-17T10:20:34.393Z,8.52
2023-01-17T10:23:35.434Z,9.48
2023-01-17T10:26:08.233Z,12.23
2023-01-17T10:28:51.153Z,9.73
2023-01-17T10:31:26.033Z,10.70
2023-01-17T10:34:18.514Z,11.70
2023-01-17T10:36:47.995Z,11.23
2023-01-17T10:39:24.967Z,12.68
2023-01-17T10:41:59.770Z,12.93
2023-01-17T10:44:39.729Z,14.80
2023-01-17T10:47:24.187Z,13.10
2023-01-17T10:49:56.688Z,13.68
2023-01-17T10:52:43.469Z,13.02
2023-01-17T10:55:28.962Z,13.05
2023-01-17T10:57:55.947Z,12.75
2023-01-17T11:00:34.206Z,12.80
2023-01-17T11:03:01.325Z,13.02
2023-01-17T11:05:30.248Z,13.45
2023-01-17T11:08:04.603Z,12.85
2023-01-17T11:10:40.576Z,13.00
2023-01-17T11:13:22.684Z,13.40
2023-01-17T11:15:51.241Z,13.00
2023-01-17T11:18:19.546Z,13.25
2023-01-17T11:20:46.596Z,13.23
2023-01-17T11:23:32.429Z,12.63
2023-01-17T11:26:02.788Z,12.40
2023-01-17T11:28:34.415Z,12.45
2023-01-17T11:31:04.328Z,12.50
2023-01-17T11:33:46.059Z,12.05
2023-01-17T11:36:27.536Z,11.95
2023-01-17T11:39:05.201Z,13.52
2023-01-17T11:41:39.916Z,12.90
2023-01-17T11:44:28.908Z,13.55
2023-01-17T11:47:14.088Z,13.50
2023-01-17T11:49:42.242Z,13.13
2023-01-17T11:52:18.375Z,13.52
2023-01-17T11:54:46.809Z,12.80
2023-01-17T11:57:43.264Z,13.35
2023-01-17T12:00:46.551Z,13.25
2023-01-17T12:03:16.999Z,12.40
2023-01-17T12:05:48.223Z,12.82
2023-01-17T12:08:37.341Z,13.73
2023-01-17T12:11:10.979Z,12.90
2023-01-17T12:14:09.122Z,12.52
2023-01-17T12:16:45.409Z,13.25
2023-01-17T12:19:39.000Z,12.27
2023-01-17T12:22:09.051Z,12.48
2023-01-17T12:24:58.480Z,12.10
2023-01-17T12:27:34.709Z,12.02
2023-01-17T12:30:20.591Z,12.27
2023-01-17T12:33:24.729Z,11.23
2023-01-17T12:36:08.932Z,11.90
2023-01-17T12:38:37.006Z,11.90
2023-01-17T12:41:19.371Z,12.40
2023-01-17T12:43:46.413Z,11.55
2023-01-17T12:46:33.774Z,11.35
2023-01-17T12:49:15.493Z,10.52
2023-01-17T12:51:43.349Z,10.70
2023-01-17T12:54:19.124Z,10.30
2023-01-17T12:56:57.001Z,9.93
2023-01-17T12:59:32.695Z,8.50
2023-01-17T13:02:01.198Z,9.70
2023-01-17T13:04:46.879Z,10.45
2023-01-17T13:07:42.609Z,11.52
2023-01-17T13:10:24.693Z,11.40
2023-01-17T13:12:53.276Z,11.88
2023-01-17T13:15:23.423Z,11.52
2023-01-17T13:17:53.231Z,11.60
2023-01-17T13:20:22.827Z,12.25
2023-01-17T13:22:50.219Z,14.60
2023-01-17T13:25:44.945Z,14.40
2023-01-17T13:28:21.250Z,15.48
2023-01-17T13:31:11.288Z,15.23
2023-01-17T13:33:53.736Z,16.00
2023-01-17T13:36:25.488Z,15.38
2023-01-17T13:39:01.190Z,16.35
2023-01-17T13:41:34.222Z,15.23
2023-01-17T13:44:19.433Z,16.75
2023-01-17T13:47:10.551Z,17.13
2023-01-17T13:49:49.487Z,16.90
2023-01-17T13:52:19.459Z,17.60
2023-01-17T13:55:01.476Z,18.70
2023-01-17T13:57:30.345Z,17.83
2023-01-17T13:59:58.283Z,16.67
2023-01-17T14:02:37.475Z,16.92
2023-01-17T14:05:29.027Z,17.42
2023-01-17T14:08:00.498Z,18.15
2023-01-17T14:10:34.294Z,17.85
2023-01-17T14:13:01.963Z,18.05
2023-01-17T14:15:29.890Z,17.23
2023-01-17T14:18:04.202Z,16.88
2023-01-17T14:20:39.621Z,17.20
2023-01-17T14:23:56.193Z,17.70
2023-01-17T14:26:34.740Z,17.42
2023-01-17T14:29:40.247Z,17.35
2023-01-17T14:32:12.875Z,17.58
2023-01-17T14:34:39.920Z,17.52
2023-01-17T14:37:30.265Z,17.50
2023-01-17T14:39:57.262Z,17.23
2023-01-17T14:42:25.044Z,17.50
2023-01-17T14:45:08.572Z,17.73
2023-01-17T14:47:38.103Z,17.00
2023-01-17T14:50:28.715Z,17.38
2023-01-17T14:53:10.824Z,17.27
2023-01-17T14:58:04.944Z,16.27
2023-01-17T15:00:35.070Z,17.10
2023-01-17T15:03:02.369Z,15.98
2023-01-17T15:05:30.305Z,15.55
2023-01-17T15:07:58.090Z,15.98
2023-01-17T15:10:32.064Z,15.57
2023-01-17T15:13:05.985Z,15.10
2023-01-17T15:15:39.923Z,15.20
2023-01-17T15:18:19.402Z,15.48
2023-01-17T15:21:00.326Z,15.75
2023-01-17T15:23:31.715Z,14.85
2023-01-17T15:25:58.803Z,15.65
2023-01-17T15:28:25.787Z,16.02
2023-01-17T15:31:09.239Z,15.45
2023-01-17T15:33:41.330Z,14.90
2023-01-17T15:38:39.285Z,14.35
2023-01-17T15:41:16.114Z,15.18
2023-01-17T15:43:43.462Z,15.25
2023-01-17T15:46:21.555Z,13.93
2023-01-17T15:48:49.013Z,14.25
2023-01-17T15:51:17.495Z,14.50
2023-01-17T15:53:44.449Z,12.90
2023-01-17T15:56:34.240Z,13.23
2023-01-17T15:59:27.604Z,11.73
2023-01-17T16:01:56.118Z,13.05
2023-01-17T16:04:27.839Z,12.95
2023-01-17T16:06:54.820Z,13.60
2023-01-17T16:09:22.581Z,13.48
2023-01-17T16:11:49.654Z,13.55
2023-01-17T16:14:17.716Z,14.60
2023-01-17T16:16:52.230Z,14.25
2023-01-17T16:19:19.198Z,14.90
2023-01-17T16:21:48.450Z,15.57
2023-01-17T16:24:15.577Z,14.38
2023-01-17T16:26:42.743Z,16.88
2023-01-17T16:29:10.212Z,14.98
2023-01-17T16:31:37.336Z,15.82
2023-01-17T16:34:09.752Z,14.35
2023-01-17T16:36:36.978Z,15.25
2023-01-17T16:39:03.993Z,15.50
2023-01-17T16:41:30.990Z,16.30
2023-01-17T16:44:00.053Z,15.85
2023-01-17T16:46:27.968Z,15.60
2023-01-17T16:48:55.258Z,15.38
2023-01-17T16:51:22.769Z,17.25
2023-01-17T16:53:49.835Z,15.30
2023-01-17T16:56:17.849Z,15.70
2023-01-17T16:58:44.867Z,15.82
2023-01-17T17:01:16.195Z,16.27
2023-01-17T17:03:43.653Z,16.65
2023-01-17T17:06:10.951Z,15.93
2023-01-17T17:08:38.317Z,15.07
2023-01-17T17:11:17.467Z,16.65
2023-01-17T17:13:45.506Z,15.95
2023-01-17T17:16:23.561Z,16.05
2023-01-17T17:18:55.612Z,16.02
2023-01-17T17:21:22.632Z,16.30
2023-01-17T17:23:56.959Z,15.02
2023-01-17T17:26:26.853Z,17.00
2023-01-17T17:28:54.532Z,16.25
2023-01-17T17:31:21.502Z,16.58
2023-01-17T17:33:48.731Z,15.60
2023-01-17T17:36:15.683Z,16.52
2023-01-17T17:38:51.103Z,18.02
2023-01-17T17:41:29.392Z,18.42
2023-01-17T17:43:56.441Z,16.40
2023-01-17T17:46:24.773Z,16.85
2023-01-17T17:48:51.653Z,16.35
2023-01-17T17:51:25.393Z,16.48
2023-01-17T17:53:53.219Z,16.58
2023-01-17T17:56:20.622Z,16.50
2023-01-17T17:58:48.328Z,15.52
2023-01-17T18:01:15.513Z,16.77
2023-01-17T18:03:42.726Z,15.93
2023-01-17T18:06:10.935Z,16.63
2023-01-17T18:08:38.104Z,16.48
2023-01-17T18:11:07.331Z,16.65
2023-01-17T18:13:34.346Z,15.10
2023-01-17T18:16:07.793Z,16.63
2023-01-17T18:18:39.776Z,16.08
2023-01-17T18:21:13.879Z,17.77
2023-01-17T18:23:42.333Z,17.35
2023-01-17T18:26:17.115Z,17.23
2023-01-17T18:28:44.168Z,17.60
2023-01-17T18:31:11.445Z,17.85
2023-01-17T18:33:39.775Z,18.25
2023-01-17T18:36:07.973Z,18.27
2023-01-17T18:38:42.538Z,19.33
2023-01-17T18:41:10.893Z,18.73
2023-01-17T18:43:37.942Z,17.38
2023-01-17T18:46:05.433Z,16.85
2023-01-17T18:48:32.578Z,17.85
2023-01-17T18:51:06.985Z,17.70
2023-01-17T18:53:34.727Z,17.67
2023-01-17T18:56:02.905Z,17.15
2023-01-17T18:58:31.281Z,18.63
2023-01-17T19:01:10.765Z,18.02
2023-01-17T19:03:38.180Z,17.40
2023-01-17T19:06:05.985Z,17.95
2023-01-17T19:08:33.626Z,17.30
2023-01-17T19:11:00.770Z,17.35
2023-01-17T19:13:27.739Z,17.70
2023-01-17T19:15:54.707Z,18.40
2023-01-17T19:18:21.770Z,18.50
2023-01-17T19:20:48.733Z,18.05
2023-01-17T19:23:15.705Z,18.73
2023-01-17T19:25:42.657Z,18.95
2023-01-17T19:28:09.941Z,18.40
2023-01-17T19:30:40.017Z,17.98
2023-01-17T19:33:06.965Z,18.60
2023-01-17T19:35:33.850Z,19.00
2023-01-17T19:38:00.917Z,18.27
2023-01-17T19:40:27.870Z,19.63
2023-01-17T19:42:55.700Z,19.65
2023-01-17T19:45:22.775Z,19.65
2023-01-17T19:47:49.715Z,18.98
2023-01-17T19:50:18.777Z,18.75
2023-01-17T19:52:45.848Z,19.15
2023-01-17T19:55:12.830Z,19.92
2023-01-17T19:57:40.553Z,19.33
2023-01-17T20:00:09.055Z,19.67
2023-01-17T20:02:39.442Z,18.92
2023-01-17T20:05:06.949Z,18.80
2023-01-17T20:07:34.086Z,18.65
2023-01-17T20:10:01.089Z,18.73
2023-01-17T20:12:28.069Z,18.52
2023-01-17T20:14:55.031Z,18.73
2023-01-17T20:17:21.989Z,19.08
2023-01-17T20:19:49.144Z,20.00
2023-01-17T20:22:16.131Z,19.42
2023-01-17T20:24:43.126Z,18.70
2023-01-17T20:27:10.071Z,19.13
2023-01-17T20:29:40.670Z,20.08
2023-01-17T20:32:08.066Z,18.52
2023-01-17T20:34:35.064Z,19.67
2023-01-17T20:37:02.320Z,19.77
2023-01-17T20:39:29.405Z,19.88
2023-01-17T20:41:56.440Z,20.35
2023-01-17T20:44:24.091Z,19.65
2023-01-17T20:46:51.067Z,19.05
2023-01-17T20:49:19.227Z,18.63
2023-01-17T20:51:46.451Z,17.27
2023-01-17T20:54:15.145Z,18.17
2023-01-17T20:56:42.848Z,17.88
2023-01-17T20:59:12.811Z,17.05
2023-01-17T21:01:40.052Z,18.30
2023-01-17T21:04:10.146Z,18.33
2023-01-17T21:06:38.760Z,17.77
2023-01-17T21:09:07.295Z,18.02
2023-01-17T21:11:34.427Z,18.17
2023-01-17T21:14:01.750Z,16.73
2023-01-17T21:16:29.070Z,17.58
2023-01-17T21:18:56.244Z,16.38
2023-01-17T21:21:26.915Z,17.30
2023-01-17T21:23:55.093Z,16.33
2023-01-17T21:26:22.471Z,16.52
2023-01-17T21:28:50.889Z,17.02
2023-01-17T21:31:25.945Z,16.63
2023-01-17T21:34:03.942Z,16.27
2023-01-17T21:36:33.265Z,16.35
2023-01-17T21:39:04.252Z,16.92
2023-01-17T21:41:33.679Z,17.13
2023-01-17T21:44:02.232Z,16.80
2023-01-17T21:46:29.393Z,16.50
2023-01-17T21:48:59.244Z,16.58
2023-01-17T21:51:46.292Z,16.40
2023-01-17T21:54:13.452Z,16.48
2023-01-17T21:56:58.787Z,17.92
2023-01-17T21:59:25.849Z,15.43
2023-01-17T22:01:52.798Z,15.20
2023-01-17T22:04:20.062Z,15.70
2023-01-17T22:06:46.996Z,14.40
2023-01-17T22:09:15.178Z,14.48
2023-01-17T22:11:42.191Z,14.55
2023-01-17T22:14:09.157Z,15.23
2023-01-17T22:16:36.155Z,14.27
2023-01-17T22:19:03.032Z,14.50
2023-01-17T22:21:30.063Z,14.88
2023-01-17T22:23:58.556Z,14.77
2023-01-17T22:26:30.169Z,14.60
2023-01-17T22:28:59.915Z,15.15
2023-01-17T22:31:27.676Z,13.82
2023-01-17T22:33:55.476Z,14.20
2023-01-17T22:36:22.693Z,13.27
2023-01-17T22:38:49.867Z,13.43
2023-01-17T22:41:20.108Z,14.25
2023-01-17T22:43:51.877Z,13.10
2023-01-17T22:46:23.472Z,13.73
2023-01-17T22:48:50.675Z,13.40
2023-01-17T22:51:18.194Z,13.25
2023-01-17T22:53:50.127Z,13.05
2023-01-17T22:58:45.191Z,12.20
2023-01-17T23:01:13.686Z,14.18
2023-01-17T23:03:41.133Z,13.18
2023-01-17T23:06:09.440Z,12.77
2023-01-17T23:08:37.235Z,11.98
2023-01-17T23:11:33.032Z,11.98
2023-01-17T23:14:00.026Z,11.50
2023-01-17T23:16:45.855Z,12.02
2023-01-17T23:19:24.679Z,11.25
2023-01-17T23:22:15.076Z,11.48
2023-01-17T23:24:43.352Z,10.80
2023-01-17T23:27:42.080Z,11.02
2023-01-17T23:30:10.831Z,10.23
2023-01-17T23:32:58.001Z,10.98
2023-01-17T23:35:29.890Z,9.90
2023-01-17T23:38:15.243Z,10.43
2023-01-17T23:40:42.438Z,10.52
2023-01-17T23:43:25.415Z,10.32
2023-01-17T23:45:53.153Z,10.57
2023-01-17T23:48:21.035Z,9.65
2023-01-17T23:50:48.312Z,10.65
2023-01-17T23:53:22.295Z,10.52
2023-01-17T23:55:53.945Z,10.27
2023-01-17T23:58:22.363Z,9.98
